Santa Rita do Passa Quatro, Brazil
Current Conditions -  °F | °C
As of 1:00 PM on Thursday 30 Oct 2014 (Local Time) from SBYS Reporting Station
Scattered Clouds Scattered Clouds  
Wind Chill: 91°   Ceiling: Unl
Heat Index: 91°   Visibility: 6mi
Dew Point: 52°   Wind: 14mph
Humidity: 26%   Direction: 340°NNW
Pressure: 29.88"   Gusts: NA
Location:  21.71°S, 47.48°W
Report Text: SBYS 301500Z 34012KT 9999 SCT045 33/11 Q1012
Loading
Personal Weather Stations






























Interactive Weather Map
Tropical Storm Tracking
New forecast layout! Learn more

10-Day Weather Forecast

Advertisements
Track Severe Weather on mobile